sensor_id;sensor_type;location;lat;lon;timestamp;P1;durP1;ratioP1;P2;durP2;ratioP2
9080;SDS011;13509;50.760;6.080;2023-07-22T00:00:58;7.13;;;5.00;;
9080;SDS011;13509;50.760;6.080;2023-07-22T00:03:27;8.13;;;4.83;;
9080;SDS011;13509;50.760;6.080;2023-07-22T00:06:06;6.97;;;5.10;;
9080;SDS011;13509;50.760;6.080;2023-07-22T00:08:35;7.63;;;4.67;;
9080;SDS011;13509;50.760;6.080;2023-07-22T00:11:04;6.70;;;4.97;;
9080;SDS011;13509;50.760;6.080;2023-07-22T00:13:32;6.13;;;4.60;;
9080;SDS011;13509;50.760;6.080;2023-07-22T00:16:01;7.87;;;5.13;;
9080;SDS011;13509;50.760;6.080;2023-07-22T00:18:30;7.30;;;4.90;;
9080;SDS011;13509;50.760;6.080;2023-07-22T00:20:59;7.33;;;4.73;;
9080;SDS011;13509;50.760;6.080;2023-07-22T00:23:28;7.73;;;5.17;;
9080;SDS011;13509;50.760;6.080;2023-07-22T00:25:57;6.67;;;5.27;;
9080;SDS011;13509;50.760;6.080;2023-07-22T00:28:25;6.63;;;4.83;;
9080;SDS011;13509;50.760;6.080;2023-07-22T00:30:53;7.07;;;5.03;;
9080;SDS011;13509;50.760;6.080;2023-07-22T00:33:23;7.90;;;5.37;;
9080;SDS011;13509;50.760;6.080;2023-07-22T00:35:53;6.93;;;5.10;;
9080;SDS011;13509;50.760;6.080;2023-07-22T00:38:21;8.20;;;5.27;;
9080;SDS011;13509;50.760;6.080;2023-07-22T00:40:51;6.67;;;5.50;;
9080;SDS011;13509;50.760;6.080;2023-07-22T00:43:19;8.17;;;5.10;;
9080;SDS011;13509;50.760;6.080;2023-07-22T00:45:48;8.40;;;5.67;;
9080;SDS011;13509;50.760;6.080;2023-07-22T00:48:16;9.07;;;5.47;;
9080;SDS011;13509;50.760;6.080;2023-07-22T00:50:44;9.30;;;6.20;;
9080;SDS011;13509;50.760;6.080;2023-07-22T00:53:12;7.37;;;5.13;;
9080;SDS011;13509;50.760;6.080;2023-07-22T00:55:41;10.10;;;6.30;;
9080;SDS011;13509;50.760;6.080;2023-07-22T00:58:10;8.10;;;5.13;;
9080;SDS011;13509;50.760;6.080;2023-07-22T01:00:39;7.00;;;5.07;;
9080;SDS011;13509;50.760;6.080;2023-07-22T01:03:07;7.87;;;5.60;;
9080;SDS011;13509;50.760;6.080;2023-07-22T01:05:35;7.37;;;4.80;;
9080;SDS011;13509;50.760;6.080;2023-07-22T01:08:04;10.70;;;5.60;;
9080;SDS011;13509;50.760;6.080;2023-07-22T01:10:33;6.50;;;4.83;;
9080;SDS011;13509;50.760;6.080;2023-07-22T01:13:01;8.83;;;4.77;;
9080;SDS011;13509;50.760;6.080;2023-07-22T01:15:31;12.07;;;4.93;;
9080;SDS011;13509;50.760;6.080;2023-07-22T01:18:00;7.83;;;4.97;;
9080;SDS011;13509;50.760;6.080;2023-07-22T01:20:30;6.37;;;4.80;;
9080;SDS011;13509;50.760;6.080;2023-07-22T01:22:59;8.67;;;5.77;;
9080;SDS011;13509;50.760;6.080;2023-07-22T01:25:28;7.83;;;5.13;;
9080;SDS011;13509;50.760;6.080;2023-07-22T01:27:56;6.87;;;5.17;;
9080;SDS011;13509;50.760;6.080;2023-07-22T01:30:24;8.73;;;5.50;;
9080;SDS011;13509;50.760;6.080;2023-07-22T01:32:53;7.50;;;5.10;;
9080;SDS011;13509;50.760;6.080;2023-07-22T01:35:22;10.93;;;5.30;;
9080;SDS011;13509;50.760;6.080;2023-07-22T01:37:50;8.73;;;5.70;;
9080;SDS011;13509;50.760;6.080;2023-07-22T01:40:20;7.33;;;5.30;;
9080;SDS011;13509;50.760;6.080;2023-07-22T01:42:49;8.23;;;5.20;;
9080;SDS011;13509;50.760;6.080;2023-07-22T01:45:18;8.67;;;6.10;;
9080;SDS011;13509;50.760;6.080;2023-07-22T01:47:46;10.97;;;5.30;;
9080;SDS011;13509;50.760;6.080;2023-07-22T01:50:14;10.80;;;5.17;;
9080;SDS011;13509;50.760;6.080;2023-07-22T01:52:44;7.70;;;5.07;;
9080;SDS011;13509;50.760;6.080;2023-07-22T01:55:13;8.97;;;5.20;;
9080;SDS011;13509;50.760;6.080;2023-07-22T01:57:43;11.90;;;5.67;;
9080;SDS011;13509;50.760;6.080;2023-07-22T02:00:12;6.93;;;4.73;;
9080;SDS011;13509;50.760;6.080;2023-07-22T02:02:41;8.23;;;5.80;;
9080;SDS011;13509;50.760;6.080;2023-07-22T02:05:10;9.27;;;5.70;;
9080;SDS011;13509;50.760;6.080;2023-07-22T02:07:38;6.30;;;4.83;;
9080;SDS011;13509;50.760;6.080;2023-07-22T02:10:07;8.53;;;5.27;;
9080;SDS011;13509;50.760;6.080;2023-07-22T02:12:35;11.83;;;5.27;;
9080;SDS011;13509;50.760;6.080;2023-07-22T02:15:06;7.70;;;5.57;;
9080;SDS011;13509;50.760;6.080;2023-07-22T02:17:34;8.17;;;5.40;;
9080;SDS011;13509;50.760;6.080;2023-07-22T02:20:03;9.60;;;5.13;;
9080;SDS011;13509;50.760;6.080;2023-07-22T02:22:32;6.93;;;4.57;;
9080;SDS011;13509;50.760;6.080;2023-07-22T02:25:00;9.03;;;5.17;;
9080;SDS011;13509;50.760;6.080;2023-07-22T02:27:29;8.33;;;5.07;;
9080;SDS011;13509;50.760;6.080;2023-07-22T02:29:57;9.67;;;5.40;;
9080;SDS011;13509;50.760;6.080;2023-07-22T02:32:27;8.00;;;4.73;;
9080;SDS011;13509;50.760;6.080;2023-07-22T02:34:55;10.60;;;5.43;;
9080;SDS011;13509;50.760;6.080;2023-07-22T02:37:23;7.17;;;5.17;;
9080;SDS011;13509;50.760;6.080;2023-07-22T02:39:54;6.00;;;4.70;;
9080;SDS011;13509;50.760;6.080;2023-07-22T02:42:22;6.60;;;5.10;;
9080;SDS011;13509;50.760;6.080;2023-07-22T02:44:50;9.37;;;5.27;;
9080;SDS011;13509;50.760;6.080;2023-07-22T02:47:19;8.03;;;5.53;;
9080;SDS011;13509;50.760;6.080;2023-07-22T02:49:48;7.53;;;5.60;;
9080;SDS011;13509;50.760;6.080;2023-07-22T02:52:16;7.60;;;4.90;;
9080;SDS011;13509;50.760;6.080;2023-07-22T02:54:53;7.40;;;5.77;;
9080;SDS011;13509;50.760;6.080;2023-07-22T02:57:31;7.17;;;4.93;;
9080;SDS011;13509;50.760;6.080;2023-07-22T02:59:59;6.50;;;4.87;;
9080;SDS011;13509;50.760;6.080;2023-07-22T03:02:33;8.27;;;4.80;;
9080;SDS011;13509;50.760;6.080;2023-07-22T03:05:03;11.10;;;5.63;;
9080;SDS011;13509;50.760;6.080;2023-07-22T03:07:34;8.33;;;5.67;;
9080;SDS011;13509;50.760;6.080;2023-07-22T03:10:02;7.60;;;5.30;;
9080;SDS011;13509;50.760;6.080;2023-07-22T03:12:31;7.40;;;4.87;;
9080;SDS011;13509;50.760;6.080;2023-07-22T03:14:59;6.97;;;5.17;;
9080;SDS011;13509;50.760;6.080;2023-07-22T03:17:27;8.07;;;5.30;;
9080;SDS011;13509;50.760;6.080;2023-07-22T03:19:56;5.73;;;4.90;;
9080;SDS011;13509;50.760;6.080;2023-07-22T03:22:25;7.03;;;4.90;;
9080;SDS011;13509;50.760;6.080;2023-07-22T03:24:53;10.10;;;5.70;;
9080;SDS011;13509;50.760;6.080;2023-07-22T03:27:22;6.77;;;4.73;;
9080;SDS011;13509;50.760;6.080;2023-07-22T03:29:50;7.43;;;5.13;;
9080;SDS011;13509;50.760;6.080;2023-07-22T03:32:18;7.40;;;4.90;;
9080;SDS011;13509;50.760;6.080;2023-07-22T03:34:46;7.37;;;5.13;;
9080;SDS011;13509;50.760;6.080;2023-07-22T03:37:15;9.53;;;5.13;;
9080;SDS011;13509;50.760;6.080;2023-07-22T03:39:44;6.43;;;4.70;;
9080;SDS011;13509;50.760;6.080;2023-07-22T03:42:12;5.40;;;4.27;;
9080;SDS011;13509;50.760;6.080;2023-07-22T03:44:40;7.97;;;5.43;;
9080;SDS011;13509;50.760;6.080;2023-07-22T03:47:09;7.00;;;5.00;;
9080;SDS011;13509;50.760;6.080;2023-07-22T03:49:37;10.60;;;5.00;;
9080;SDS011;13509;50.760;6.080;2023-07-22T03:52:06;6.43;;;4.67;;
9080;SDS011;13509;50.760;6.080;2023-07-22T03:54:34;5.80;;;4.63;;
9080;SDS011;13509;50.760;6.080;2023-07-22T03:57:04;6.87;;;5.20;;
9080;SDS011;13509;50.760;6.080;2023-07-22T03:59:32;7.03;;;4.53;;
9080;SDS011;13509;50.760;6.080;2023-07-22T04:02:01;7.33;;;4.60;;
9080;SDS011;13509;50.760;6.080;2023-07-22T04:04:29;5.50;;;4.80;;
9080;SDS011;13509;50.760;6.080;2023-07-22T04:06:57;7.27;;;4.70;;
9080;SDS011;13509;50.760;6.080;2023-07-22T04:09:26;6.77;;;5.03;;
9080;SDS011;13509;50.760;6.080;2023-07-22T04:11:55;5.77;;;4.70;;
9080;SDS011;13509;50.760;6.080;2023-07-22T04:14:24;6.70;;;4.77;;
9080;SDS011;13509;50.760;6.080;2023-07-22T04:16:53;7.40;;;4.93;;
9080;SDS011;13509;50.760;6.080;2023-07-22T04:19:21;5.70;;;3.93;;
9080;SDS011;13509;50.760;6.080;2023-07-22T04:21:49;6.87;;;5.20;;
9080;SDS011;13509;50.760;6.080;2023-07-22T04:24:17;6.20;;;4.30;;
9080;SDS011;13509;50.760;6.080;2023-07-22T04:26:46;9.00;;;5.00;;
9080;SDS011;13509;50.760;6.080;2023-07-22T04:29:14;6.33;;;5.07;;
9080;SDS011;13509;50.760;6.080;2023-07-22T04:31:44;11.23;;;5.23;;
9080;SDS011;13509;50.760;6.080;2023-07-22T04:34:14;7.00;;;4.50;;
9080;SDS011;13509;50.760;6.080;2023-07-22T04:36:42;6.67;;;5.00;;
9080;SDS011;13509;50.760;6.080;2023-07-22T04:39:10;8.53;;;5.07;;
9080;SDS011;13509;50.760;6.080;2023-07-22T04:41:38;8.63;;;5.27;;
9080;SDS011;13509;50.760;6.080;2023-07-22T04:44:06;7.53;;;4.40;;
9080;SDS011;13509;50.760;6.080;2023-07-22T04:46:35;5.63;;;4.67;;
9080;SDS011;13509;50.760;6.080;2023-07-22T04:49:04;5.90;;;4.60;;
9080;SDS011;13509;50.760;6.080;2023-07-22T04:51:32;7.60;;;4.33;;
9080;SDS011;13509;50.760;6.080;2023-07-22T04:54:01;5.63;;;4.50;;
9080;SDS011;13509;50.760;6.080;2023-07-22T04:56:29;6.40;;;4.37;;
9080;SDS011;13509;50.760;6.080;2023-07-22T04:58:57;6.50;;;5.30;;
9080;SDS011;13509;50.760;6.080;2023-07-22T05:01:25;6.83;;;4.83;;
9080;SDS011;13509;50.760;6.080;2023-07-22T05:03:53;8.73;;;4.90;;
9080;SDS011;13509;50.760;6.080;2023-07-22T05:06:23;6.87;;;4.63;;
9080;SDS011;13509;50.760;6.080;2023-07-22T05:08:52;7.90;;;5.10;;
9080;SDS011;13509;50.760;6.080;2023-07-22T05:11:20;6.73;;;4.63;;
9080;SDS011;13509;50.760;6.080;2023-07-22T05:13:49;6.17;;;4.83;;
9080;SDS011;13509;50.760;6.080;2023-07-22T05:16:17;5.40;;;4.47;;
9080;SDS011;13509;50.760;6.080;2023-07-22T05:18:47;6.07;;;4.50;;
9080;SDS011;13509;50.760;6.080;2023-07-22T05:21:16;5.57;;;4.63;;
9080;SDS011;13509;50.760;6.080;2023-07-22T05:23:45;7.00;;;4.87;;
9080;SDS011;13509;50.760;6.080;2023-07-22T05:26:13;7.40;;;5.47;;
9080;SDS011;13509;50.760;6.080;2023-07-22T05:28:42;6.70;;;5.50;;
9080;SDS011;13509;50.760;6.080;2023-07-22T05:31:10;9.33;;;5.23;;
9080;SDS011;13509;50.760;6.080;2023-07-22T05:33:38;6.00;;;4.83;;
9080;SDS011;13509;50.760;6.080;2023-07-22T05:36:07;6.63;;;4.73;;
9080;SDS011;13509;50.760;6.080;2023-07-22T05:38:35;6.73;;;5.03;;
9080;SDS011;13509;50.760;6.080;2023-07-22T05:41:04;6.10;;;5.30;;
9080;SDS011;13509;50.760;6.080;2023-07-22T05:43:33;11.23;;;5.10;;
9080;SDS011;13509;50.760;6.080;2023-07-22T05:46:01;10.43;;;5.40;;
9080;SDS011;13509;50.760;6.080;2023-07-22T05:48:29;6.77;;;5.37;;
9080;SDS011;13509;50.760;6.080;2023-07-22T05:50:57;7.70;;;5.53;;
9080;SDS011;13509;50.760;6.080;2023-07-22T05:53:26;8.53;;;5.60;;
9080;SDS011;13509;50.760;6.080;2023-07-22T05:55:54;9.00;;;5.77;;
9080;SDS011;13509;50.760;6.080;2023-07-22T05:58:23;7.90;;;5.90;;
9080;SDS011;13509;50.760;6.080;2023-07-22T06:00:53;8.30;;;6.03;;
9080;SDS011;13509;50.760;6.080;2023-07-22T06:03:21;9.10;;;5.70;;
9080;SDS011;13509;50.760;6.080;2023-07-22T06:05:50;8.50;;;6.00;;
9080;SDS011;13509;50.760;6.080;2023-07-22T06:08:18;7.67;;;6.03;;
9080;SDS011;13509;50.760;6.080;2023-07-22T06:10:46;8.37;;;5.77;;
9080;SDS011;13509;50.760;6.080;2023-07-22T06:13:15;9.37;;;5.80;;
9080;SDS011;13509;50.760;6.080;2023-07-22T06:15:44;6.80;;;5.23;;
9080;SDS011;13509;50.760;6.080;2023-07-22T06:18:12;11.03;;;6.07;;
9080;SDS011;13509;50.760;6.080;2023-07-22T06:20:41;9.40;;;6.37;;
9080;SDS011;13509;50.760;6.080;2023-07-22T06:23:09;8.33;;;6.03;;
9080;SDS011;13509;50.760;6.080;2023-07-22T06:25:37;8.50;;;6.40;;
9080;SDS011;13509;50.760;6.080;2023-07-22T06:28:05;13.50;;;6.77;;
9080;SDS011;13509;50.760;6.080;2023-07-22T06:30:34;9.93;;;6.23;;
9080;SDS011;13509;50.760;6.080;2023-07-22T06:33:03;8.40;;;6.60;;
9080;SDS011;13509;50.760;6.080;2023-07-22T06:35:32;7.33;;;6.33;;
9080;SDS011;13509;50.760;6.080;2023-07-22T06:38:00;7.80;;;6.10;;
9080;SDS011;13509;50.760;6.080;2023-07-22T06:40:28;8.07;;;6.10;;
9080;SDS011;13509;50.760;6.080;2023-07-22T06:42:56;7.37;;;6.47;;
9080;SDS011;13509;50.760;6.080;2023-07-22T06:45:25;8.37;;;6.47;;
9080;SDS011;13509;50.760;6.080;2023-07-22T06:47:53;7.87;;;5.70;;
9080;SDS011;13509;50.760;6.080;2023-07-22T06:50:23;10.20;;;6.27;;
9080;SDS011;13509;50.760;6.080;2023-07-22T06:52:51;8.00;;;6.43;;
9080;SDS011;13509;50.760;6.080;2023-07-22T06:55:19;7.47;;;5.97;;
9080;SDS011;13509;50.760;6.080;2023-07-22T06:57:47;9.07;;;5.93;;
9080;SDS011;13509;50.760;6.080;2023-07-22T07:00:16;7.60;;;6.40;;
9080;SDS011;13509;50.760;6.080;2023-07-22T07:02:45;8.23;;;6.30;;
9080;SDS011;13509;50.760;6.080;2023-07-22T07:05:14;7.03;;;5.60;;
9080;SDS011;13509;50.760;6.080;2023-07-22T07:07:44;9.43;;;6.10;;
9080;SDS011;13509;50.760;6.080;2023-07-22T07:10:12;9.07;;;6.20;;
9080;SDS011;13509;50.760;6.080;2023-07-22T07:12:40;8.80;;;5.93;;
9080;SDS011;13509;50.760;6.080;2023-07-22T07:15:09;6.10;;;5.50;;
9080;SDS011;13509;50.760;6.080;2023-07-22T07:17:37;10.40;;;6.43;;
9080;SDS011;13509;50.760;6.080;2023-07-22T07:20:06;7.57;;;5.57;;
9080;SDS011;13509;50.760;6.080;2023-07-22T07:22:35;8.23;;;5.87;;
9080;SDS011;13509;50.760;6.080;2023-07-22T07:25:05;7.40;;;5.47;;
9080;SDS011;13509;50.760;6.080;2023-07-22T07:27:33;10.77;;;5.53;;
9080;SDS011;13509;50.760;6.080;2023-07-22T07:30:01;7.27;;;5.80;;
9080;SDS011;13509;50.760;6.080;2023-07-22T07:32:30;7.47;;;6.10;;
9080;SDS011;13509;50.760;6.080;2023-07-22T07:34:58;6.53;;;5.30;;
9080;SDS011;13509;50.760;6.080;2023-07-22T07:37:26;8.10;;;5.10;;
9080;SDS011;13509;50.760;6.080;2023-07-22T07:39:55;5.53;;;4.87;;
9080;SDS011;13509;50.760;6.080;2023-07-22T07:42:27;7.27;;;4.60;;
9080;SDS011;13509;50.760;6.080;2023-07-22T07:44:55;6.20;;;4.27;;
9080;SDS011;13509;50.760;6.080;2023-07-22T07:47:23;6.67;;;4.80;;
9080;SDS011;13509;50.760;6.080;2023-07-22T07:49:51;7.20;;;4.70;;
9080;SDS011;13509;50.760;6.080;2023-07-22T07:52:20;5.50;;;4.20;;
9080;SDS011;13509;50.760;6.080;2023-07-22T07:54:48;8.30;;;4.43;;
9080;SDS011;13509;50.760;6.080;2023-07-22T07:57:16;5.20;;;4.13;;
9080;SDS011;13509;50.760;6.080;2023-07-22T07:59:46;6.90;;;4.57;;
9080;SDS011;13509;50.760;6.080;2023-07-22T08:02:14;7.07;;;4.73;;
9080;SDS011;13509;50.760;6.080;2023-07-22T08:04:42;5.73;;;4.63;;
9080;SDS011;13509;50.760;6.080;2023-07-22T08:07:10;5.47;;;4.80;;
9080;SDS011;13509;50.760;6.080;2023-07-22T08:09:43;7.20;;;4.87;;
9080;SDS011;13509;50.760;6.080;2023-07-22T08:12:14;6.87;;;4.50;;
9080;SDS011;13509;50.760;6.080;2023-07-22T08:14:42;7.07;;;4.40;;
9080;SDS011;13509;50.760;6.080;2023-07-22T08:17:12;4.50;;;4.10;;
9080;SDS011;13509;50.760;6.080;2023-07-22T08:19:40;7.70;;;4.40;;
9080;SDS011;13509;50.760;6.080;2023-07-22T08:22:08;5.40;;;4.03;;
9080;SDS011;13509;50.760;6.080;2023-07-22T08:24:37;5.13;;;4.10;;
9080;SDS011;13509;50.760;6.080;2023-07-22T08:27:05;4.60;;;4.20;;
9080;SDS011;13509;50.760;6.080;2023-07-22T08:29:33;5.20;;;3.90;;
9080;SDS011;13509;50.760;6.080;2023-07-22T08:32:01;3.67;;;3.33;;
9080;SDS011;13509;50.760;6.080;2023-07-22T08:34:31;4.60;;;3.60;;
9080;SDS011;13509;50.760;6.080;2023-07-22T08:36:59;3.97;;;3.57;;
9080;SDS011;13509;50.760;6.080;2023-07-22T08:39:31;5.47;;;3.13;;
9080;SDS011;13509;50.760;6.080;2023-07-22T08:42:00;5.40;;;3.70;;
9080;SDS011;13509;50.760;6.080;2023-07-22T08:44:31;3.97;;;3.57;;
9080;SDS011;13509;50.760;6.080;2023-07-22T08:47:02;4.20;;;3.57;;
9080;SDS011;13509;50.760;6.080;2023-07-22T08:49:32;3.20;;;2.90;;
9080;SDS011;13509;50.760;6.080;2023-07-22T08:52:00;3.22;;;2.90;;
9080;SDS011;13509;50.760;6.080;2023-07-22T08:54:29;3.20;;;2.80;;
9080;SDS011;13509;50.760;6.080;2023-07-22T08:56:58;4.13;;;3.45;;
9080;SDS011;13509;50.760;6.080;2023-07-22T08:59:26;3.47;;;3.17;;
9080;SDS011;13509;50.760;6.080;2023-07-22T09:01:54;4.00;;;3.17;;
9080;SDS011;13509;50.760;6.080;2023-07-22T09:04:24;3.47;;;2.83;;
9080;SDS011;13509;50.760;6.080;2023-07-22T09:06:53;4.30;;;3.60;;
9080;SDS011;13509;50.760;6.080;2023-07-22T09:09:23;5.87;;;3.60;;
9080;SDS011;13509;50.760;6.080;2023-07-22T09:11:52;5.83;;;3.70;;
9080;SDS011;13509;50.760;6.080;2023-07-22T09:14:21;3.93;;;3.17;;
9080;SDS011;13509;50.760;6.080;2023-07-22T09:17:03;5.27;;;3.70;;
9080;SDS011;13509;50.760;6.080;2023-07-22T09:19:31;4.10;;;3.30;;
9080;SDS011;13509;50.760;6.080;2023-07-22T09:22:01;4.80;;;3.30;;
9080;SDS011;13509;50.760;6.080;2023-07-22T09:24:29;4.83;;;3.87;;
9080;SDS011;13509;50.760;6.080;2023-07-22T09:26:57;4.00;;;3.47;;
9080;SDS011;13509;50.760;6.080;2023-07-22T09:29:33;4.40;;;3.17;;
9080;SDS011;13509;50.760;6.080;2023-07-22T09:32:01;4.27;;;3.10;;
9080;SDS011;13509;50.760;6.080;2023-07-22T09:34:30;4.30;;;3.60;;
9080;SDS011;13509;50.760;6.080;2023-07-22T09:36:58;4.50;;;3.77;;
9080;SDS011;13509;50.760;6.080;2023-07-22T09:39:29;3.23;;;2.93;;
9080;SDS011;13509;50.760;6.080;2023-07-22T09:41:58;4.47;;;2.93;;
9080;SDS011;13509;50.760;6.080;2023-07-22T09:44:29;6.90;;;2.97;;
9080;SDS011;13509;50.760;6.080;2023-07-22T09:46:58;3.00;;;2.70;;
9080;SDS011;13509;50.760;6.080;2023-07-22T09:49:26;2.77;;;2.50;;
9080;SDS011;13509;50.760;6.080;2023-07-22T09:51:54;3.57;;;2.77;;
9080;SDS011;13509;50.760;6.080;2023-07-22T09:54:29;5.37;;;3.10;;
9080;SDS011;13509;50.760;6.080;2023-07-22T09:56:58;3.17;;;2.80;;
9080;SDS011;13509;50.760;6.080;2023-07-22T09:59:27;6.03;;;3.13;;
9080;SDS011;13509;50.760;6.080;2023-07-22T10:01:57;7.83;;;2.73;;
9080;SDS011;13509;50.760;6.080;2023-07-22T10:04:29;3.30;;;2.83;;
9080;SDS011;13509;50.760;6.080;2023-07-22T10:07:02;4.30;;;2.87;;
9080;SDS011;13509;50.760;6.080;2023-07-22T10:09:32;4.37;;;2.70;;
9080;SDS011;13509;50.760;6.080;2023-07-22T10:12:01;3.10;;;2.80;;
9080;SDS011;13509;50.760;6.080;2023-07-22T10:14:29;3.93;;;3.00;;
9080;SDS011;13509;50.760;6.080;2023-07-22T10:17:01;4.03;;;3.17;;
9080;SDS011;13509;50.760;6.080;2023-07-22T10:19:30;4.03;;;3.17;;
9080;SDS011;13509;50.760;6.080;2023-07-22T10:21:58;4.17;;;3.03;;
9080;SDS011;13509;50.760;6.080;2023-07-22T10:24:26;3.27;;;2.90;;
9080;SDS011;13509;50.760;6.080;2023-07-22T10:26:56;3.83;;;2.80;;
9080;SDS011;13509;50.760;6.080;2023-07-22T10:29:25;3.30;;;3.00;;
9080;SDS011;13509;50.760;6.080;2023-07-22T10:31:53;3.77;;;3.27;;
9080;SDS011;13509;50.760;6.080;2023-07-22T10:34:21;3.13;;;2.80;;
9080;SDS011;13509;50.760;6.080;2023-07-22T10:36:51;4.33;;;2.97;;
9080;SDS011;13509;50.760;6.080;2023-07-22T10:39:26;5.63;;;3.47;;
9080;SDS011;13509;50.760;6.080;2023-07-22T10:42:00;6.73;;;3.40;;
9080;SDS011;13509;50.760;6.080;2023-07-22T10:44:31;3.80;;;3.17;;
9080;SDS011;13509;50.760;6.080;2023-07-22T10:46:59;5.63;;;2.93;;
9080;SDS011;13509;50.760;6.080;2023-07-22T10:49:41;5.00;;;3.10;;
9080;SDS011;13509;50.760;6.080;2023-07-22T10:52:10;4.37;;;2.97;;
9080;SDS011;13509;50.760;6.080;2023-07-22T10:54:40;4.07;;;2.57;;
9080;SDS011;13509;50.760;6.080;2023-07-22T10:57:25;2.90;;;2.70;;
9080;SDS011;13509;50.760;6.080;2023-07-22T10:59:55;2.60;;;2.33;;
9080;SDS011;13509;50.760;6.080;2023-07-22T11:02:24;2.50;;;2.30;;
9080;SDS011;13509;50.760;6.080;2023-07-22T11:04:53;2.80;;;2.33;;
9080;SDS011;13509;50.760;6.080;2023-07-22T11:07:30;4.20;;;2.20;;
9080;SDS011;13509;50.760;6.080;2023-07-22T11:10:04;4.73;;;2.47;;
9080;SDS011;13509;50.760;6.080;2023-07-22T11:12:39;3.27;;;2.20;;
9080;SDS011;13509;50.760;6.080;2023-07-22T11:15:10;2.93;;;1.90;;
9080;SDS011;13509;50.760;6.080;2023-07-22T11:17:38;2.63;;;2.40;;
9080;SDS011;13509;50.760;6.080;2023-07-22T11:20:07;3.20;;;2.90;;
9080;SDS011;13509;50.760;6.080;2023-07-22T11:22:38;3.17;;;2.70;;
9080;SDS011;13509;50.760;6.080;2023-07-22T11:25:07;3.27;;;2.53;;
9080;SDS011;13509;50.760;6.080;2023-07-22T11:27:35;3.07;;;2.67;;
9080;SDS011;13509;50.760;6.080;2023-07-22T11:30:06;3.10;;;2.70;;
9080;SDS011;13509;50.760;6.080;2023-07-22T11:32:34;3.80;;;2.60;;
9080;SDS011;13509;50.760;6.080;2023-07-22T11:35:02;3.90;;;2.67;;
9080;SDS011;13509;50.760;6.080;2023-07-22T11:37:31;3.03;;;2.60;;
9080;SDS011;13509;50.760;6.080;2023-07-22T11:39:59;3.93;;;2.77;;
9080;SDS011;13509;50.760;6.080;2023-07-22T11:42:28;3.37;;;2.37;;
9080;SDS011;13509;50.760;6.080;2023-07-22T11:44:57;2.67;;;2.47;;
9080;SDS011;13509;50.760;6.080;2023-07-22T11:47:29;4.33;;;2.63;;
9080;SDS011;13509;50.760;6.080;2023-07-22T11:49:58;5.77;;;2.80;;
9080;SDS011;13509;50.760;6.080;2023-07-22T11:52:26;3.70;;;2.70;;
9080;SDS011;13509;50.760;6.080;2023-07-22T11:54:54;4.83;;;2.83;;
9080;SDS011;13509;50.760;6.080;2023-07-22T11:57:27;2.70;;;2.43;;
9080;SDS011;13509;50.760;6.080;2023-07-22T11:59:56;3.13;;;2.80;;
9080;SDS011;13509;50.760;6.080;2023-07-22T12:02:25;5.90;;;2.83;;
9080;SDS011;13509;50.760;6.080;2023-07-22T12:04:56;4.07;;;3.00;;
9080;SDS011;13509;50.760;6.080;2023-07-22T12:07:25;3.13;;;2.83;;
9080;SDS011;13509;50.760;6.080;2023-07-22T12:09:54;3.00;;;2.40;;
9080;SDS011;13509;50.760;6.080;2023-07-22T12:12:31;3.80;;;2.67;;
9080;SDS011;13509;50.760;6.080;2023-07-22T12:15:01;4.87;;;2.87;;
9080;SDS011;13509;50.760;6.080;2023-07-22T12:17:42;4.77;;;2.90;;
9080;SDS011;13509;50.760;6.080;2023-07-22T12:20:12;3.20;;;2.77;;
9080;SDS011;13509;50.760;6.080;2023-07-22T12:22:41;3.20;;;2.90;;
9080;SDS011;13509;50.760;6.080;2023-07-22T12:25:09;3.63;;;3.20;;
9080;SDS011;13509;50.760;6.080;2023-07-22T12:27:38;4.07;;;2.83;;
9080;SDS011;13509;50.760;6.080;2023-07-22T12:30:06;5.13;;;2.90;;
9080;SDS011;13509;50.760;6.080;2023-07-22T12:32:35;3.40;;;3.10;;
9080;SDS011;13509;50.760;6.080;2023-07-22T12:35:03;6.30;;;3.20;;
9080;SDS011;13509;50.760;6.080;2023-07-22T12:37:33;5.60;;;3.37;;
9080;SDS011;13509;50.760;6.080;2023-07-22T12:40:01;3.63;;;3.20;;
9080;SDS011;13509;50.760;6.080;2023-07-22T12:42:34;5.27;;;3.40;;
9080;SDS011;13509;50.760;6.080;2023-07-22T12:45:02;3.13;;;2.83;;
9080;SDS011;13509;50.760;6.080;2023-07-22T12:47:31;3.20;;;2.87;;
9080;SDS011;13509;50.760;6.080;2023-07-22T12:49:59;3.60;;;2.97;;
9080;SDS011;13509;50.760;6.080;2023-07-22T12:52:27;3.17;;;2.73;;
9080;SDS011;13509;50.760;6.080;2023-07-22T12:54:57;5.10;;;2.83;;
9080;SDS011;13509;50.760;6.080;2023-07-22T12:57:25;3.57;;;2.90;;
9080;SDS011;13509;50.760;6.080;2023-07-22T12:59:53;3.00;;;2.67;;
9080;SDS011;13509;50.760;6.080;2023-07-22T13:02:21;3.10;;;2.80;;
9080;SDS011;13509;50.760;6.080;2023-07-22T13:04:51;3.83;;;2.80;;
9080;SDS011;13509;50.760;6.080;2023-07-22T13:07:20;3.00;;;2.47;;
9080;SDS011;13509;50.760;6.080;2023-07-22T13:09:48;2.57;;;2.37;;
9080;SDS011;13509;50.760;6.080;2023-07-22T13:12:20;2.93;;;2.63;;
9080;SDS011;13509;50.760;6.080;2023-07-22T13:14:49;2.93;;;2.60;;
9080;SDS011;13509;50.760;6.080;2023-07-22T13:17:17;3.90;;;3.03;;
9080;SDS011;13509;50.760;6.080;2023-07-22T13:19:45;4.97;;;2.87;;
9080;SDS011;13509;50.760;6.080;2023-07-22T13:22:13;3.67;;;2.67;;
9080;SDS011;13509;50.760;6.080;2023-07-22T13:24:41;4.70;;;3.20;;
9080;SDS011;13509;50.760;6.080;2023-07-22T13:27:10;4.27;;;3.23;;
9080;SDS011;13509;50.760;6.080;2023-07-22T13:29:40;3.77;;;2.97;;
9080;SDS011;13509;50.760;6.080;2023-07-22T13:32:08;4.43;;;2.63;;
9080;SDS011;13509;50.760;6.080;2023-07-22T13:34:36;4.43;;;3.17;;
9080;SDS011;13509;50.760;6.080;2023-07-22T13:37:04;3.30;;;2.70;;
9080;SDS011;13509;50.760;6.080;2023-07-22T13:39:33;5.03;;;2.90;;
9080;SDS011;13509;50.760;6.080;2023-07-22T13:42:01;4.17;;;2.83;;
9080;SDS011;13509;50.760;6.080;2023-07-22T13:44:29;4.73;;;2.57;;
9080;SDS011;13509;50.760;6.080;2023-07-22T13:46:59;4.83;;;2.50;;
9080;SDS011;13509;50.760;6.080;2023-07-22T13:49:28;3.67;;;3.03;;
9080;SDS011;13509;50.760;6.080;2023-07-22T13:51:56;2.50;;;2.20;;
9080;SDS011;13509;50.760;6.080;2023-07-22T13:54:24;4.73;;;2.63;;
9080;SDS011;13509;50.760;6.080;2023-07-22T13:56:52;4.37;;;2.80;;
9080;SDS011;13509;50.760;6.080;2023-07-22T13:59:21;8.43;;;2.63;;
9080;SDS011;13509;50.760;6.080;2023-07-22T14:01:49;2.77;;;2.20;;
9080;SDS011;13509;50.760;6.080;2023-07-22T14:04:18;4.17;;;2.40;;
9080;SDS011;13509;50.760;6.080;2023-07-22T14:06:47;2.77;;;2.10;;
9080;SDS011;13509;50.760;6.080;2023-07-22T14:09:15;2.17;;;1.97;;
9080;SDS011;13509;50.760;6.080;2023-07-22T14:11:43;3.27;;;2.00;;
9080;SDS011;13509;50.760;6.080;2023-07-22T14:14:11;2.10;;;1.90;;
9080;SDS011;13509;50.760;6.080;2023-07-22T14:16:40;3.73;;;1.80;;
9080;SDS011;13509;50.760;6.080;2023-07-22T14:19:08;2.53;;;2.13;;
9080;SDS011;13509;50.760;6.080;2023-07-22T14:21:38;2.30;;;2.10;;
9080;SDS011;13509;50.760;6.080;2023-07-22T14:24:06;2.83;;;1.90;;
9080;SDS011;13509;50.760;6.080;2023-07-22T14:26:34;2.43;;;1.90;;
9080;SDS011;13509;50.760;6.080;2023-07-22T14:29:02;2.37;;;1.90;;
9080;SDS011;13509;50.760;6.080;2023-07-22T14:31:31;2.90;;;1.87;;
9080;SDS011;13509;50.760;6.080;2023-07-22T14:33:59;1.90;;;1.70;;
9080;SDS011;13509;50.760;6.080;2023-07-22T14:36:27;2.47;;;2.03;;
9080;SDS011;13509;50.760;6.080;2023-07-22T14:38:57;3.43;;;2.40;;
9080;SDS011;13509;50.760;6.080;2023-07-22T14:41:25;3.33;;;2.07;;
9080;SDS011;13509;50.760;6.080;2023-07-22T14:43:54;3.33;;;2.73;;
9080;SDS011;13509;50.760;6.080;2023-07-22T14:46:22;3.33;;;2.50;;
9080;SDS011;13509;50.760;6.080;2023-07-22T14:48:50;6.30;;;2.60;;
9080;SDS011;13509;50.760;6.080;2023-07-22T14:51:18;3.23;;;2.30;;
9080;SDS011;13509;50.760;6.080;2023-07-22T14:53:47;3.00;;;2.20;;
9080;SDS011;13509;50.760;6.080;2023-07-22T14:56:16;6.90;;;3.07;;
9080;SDS011;13509;50.760;6.080;2023-07-22T14:58:45;4.07;;;2.30;;
9080;SDS011;13509;50.760;6.080;2023-07-22T15:01:13;3.50;;;2.30;;
9080;SDS011;13509;50.760;6.080;2023-07-22T15:03:42;3.77;;;2.53;;
9080;SDS011;13509;50.760;6.080;2023-07-22T15:06:10;6.50;;;2.80;;
9080;SDS011;13509;50.760;6.080;2023-07-22T15:08:38;3.00;;;2.10;;
9080;SDS011;13509;50.760;6.080;2023-07-22T15:11:06;3.23;;;2.53;;